Terminal Aerodrome Forecast
Issued by NWS

Home | Current Version | Previous Version | Text Only | Print | Product List | Glossary On
Versions: 1 2 3 4 5 6 7 8 9 10 11 12 13 14 15
000
FTAK31 PAJN 262124 AAB
TAFAYA
TAF AMD
PAYA 262124Z 2621/2718 08011G16KT 4SM -RA BR BKN012 OVC025
      WS020/07035KT
      TEMPO 2621/2624 1SM RA BR OVC009
     FM270500 08010G18KT 5SM -RA BR BKN015 OVC025
      AMD NOT SKED=

USA.gov is the U.S. government's official web portal to all federal, state and local government web resources and services.